Time;durP1;ratioP1;P1;durP2;ratioP2;P2;SDS_P1;SDS_P2;PMS_P1;PMS_P2;Temp;Humidity;BMP_temperature;BMP_pressure;BME280_temperature;BME280_humidity;BME280_pressure;Samples;Min_cycle;Max_cycle;Signal;HPM_P1;HPM_P2
2023/10/27 00:02:23;;;;;;;1.60;1.10;;;;;;;9.93;100.00;90519.28;6284564;22;20384;-79
2023/10/27 00:04:49;;;;;;;3.08;1.20;;;;;;;9.94;100.00;90521.56;6311904;22;19999;-80
2023/10/27 00:07:14;;;;;;;1.52;1.17;;;;;;;9.92;100.00;90515.16;6311540;22;20016;-79
2023/10/27 00:09:41;;;;;;;2.28;1.13;;;;;;;9.91;100.00;90513.63;6310887;22;20006;-77
2023/10/27 00:12:07;;;;;;;1.15;1.05;;;;;;;9.89;100.00;90507.97;6253424;22;20034;-80
2023/10/27 00:14:34;;;;;;;1.50;1.20;;;;;;;9.87;100.00;90510.16;6254809;22;20030;-80
2023/10/27 00:17:00;;;;;;;4.25;1.27;;;;;;;9.82;100.00;90507.75;6280507;22;20058;-82
2023/10/27 00:19:25;;;;;;;1.70;1.25;;;;;;;9.83;100.00;90502.19;6253177;22;20004;-78
2023/10/27 00:21:51;;;;;;;3.58;1.05;;;;;;;9.81;100.00;90504.38;6280102;22;20019;-80
2023/10/27 00:24:17;;;;;;;1.30;1.10;;;;;;;9.85;100.00;90512.31;6229435;22;20007;-82
2023/10/27 00:26:42;;;;;;;1.23;1.00;;;;;;;9.79;100.00;90512.56;6281706;22;20074;-81
2023/10/27 00:29:08;;;;;;;1.58;0.98;;;;;;;9.86;100.00;90517.25;6279757;22;20000;-79
2023/10/27 00:31:34;;;;;;;1.08;0.95;;;;;;;9.83;100.00;90520.50;6255125;22;20035;-80
2023/10/27 00:33:59;;;;;;;1.70;1.05;;;;;;;9.85;100.00;90518.31;6255470;22;20010;-79
2023/10/27 00:36:25;;;;;;;1.00;1.00;;;;;;;9.84;100.00;90513.41;6282474;22;20506;-78
2023/10/27 00:38:51;;;;;;;1.42;1.10;;;;;;;9.83;100.00;90520.50;6283520;22;20126;-82
2023/10/27 00:41:17;;;;;;;0.90;0.90;;;;;;;9.84;100.00;90513.41;6280732;22;20363;-81
2023/10/27 00:43:43;;;;;;;1.27;1.00;;;;;;;9.76;100.00;90504.59;6280826;22;20389;-79
2023/10/27 00:46:09;;;;;;;1.33;0.95;;;;;;;9.87;100.00;90516.13;6280482;22;20488;-79
2023/10/27 00:48:35;;;;;;;1.63;1.10;;;;;;;9.90;100.00;90512.84;6283008;22;19996;-80
2023/10/27 00:51:03;;;;;;;42.05;1.95;;;;;;;9.83;100.00;90504.81;6282119;22;20023;-80
2023/10/27 00:53:29;;;;;;;75.07;2.17;;;;;;;9.83;100.00;90514.50;6283428;22;20045;-78
2023/10/27 00:55:55;;;;;;;89.53;2.72;;;;;;;9.77;100.00;90511.34;6282228;22;20018;-81
2023/10/27 00:58:22;;;;;;;113.07;2.33;;;;;;;9.73;100.00;90511.25;6280538;22;20012;-80
2023/10/27 01:00:48;;;;;;;112.78;2.60;;;;;;;9.69;100.00;90507.78;6281029;22;20018;-79
2023/10/27 01:03:14;;;;;;;154.43;3.33;;;;;;;9.71;100.00;90502.22;6254417;22;20447;-81
2023/10/27 01:05:40;;;;;;;264.25;5.13;;;;;;;9.62;100.00;90489.28;6281947;22;20016;-79
2023/10/27 01:08:06;;;;;;;275.08;5.07;;;;;;;9.75;100.00;90487.41;6255720;22;19996;-80
2023/10/27 01:10:32;;;;;;;337.15;6.93;;;;;;;9.72;100.00;90488.06;6282532;22;20027;-81
2023/10/27 01:12:58;;;;;;;232.50;5.65;;;;;;;9.62;100.00;90483.28;6279745;22;20015;-80
2023/10/27 01:15:23;;;;;;;43.25;2.08;;;;;;;9.72;100.00;90488.06;6281691;22;20008;-78
2023/10/27 01:17:49;;;;;;;29.38;1.80;;;;;;;9.75;100.00;90477.72;6255883;22;20065;-81
2023/10/27 01:20:14;;;;;;;29.33;1.70;;;;;;;9.56;100.00;90469.69;6280704;22;20034;-79
2023/10/27 01:22:46;;;;;;;1.95;1.35;;;;;;;9.62;100.00;90467.63;6253341;22;20003;-79
2023/10/27 01:25:13;;;;;;;2.00;1.30;;;;;;;9.55;100.00;90463.69;6253290;22;20012;-80
2023/10/27 01:27:39;;;;;;;22.58;1.63;;;;;;;9.61;100.00;90456.38;6228078;22;20399;-80
2023/10/27 01:30:05;;;;;;;28.00;1.80;;;;;;;9.59;100.00;90438.44;6253199;22;20012;-81
2023/10/27 01:32:31;;;;;;;13.05;1.50;;;;;;;9.66;100.00;90439.72;6253015;22;20003;-79
2023/10/27 01:34:57;;;;;;;27.33;1.67;;;;;;;9.71;100.00;90429.81;6277924;22;20050;-79
2023/10/27 01:37:22;;;;;;;8.13;1.42;;;;;;;9.62;100.00;90436.28;6278330;22;20003;-79
2023/10/27 01:39:49;;;;;;;1.58;1.13;;;;;;;9.56;100.00;90427.88;6280902;22;20023;-82
2023/10/27 01:42:15;;;;;;;3.00;1.40;;;;;;;9.50;100.00;90424.75;6253420;22;20004;-82
2023/10/27 01:44:42;;;;;;;2.03;1.30;;;;;;;9.52;100.00;90422.56;6253609;22;20019;-80
2023/10/27 01:47:08;;;;;;;1.58;1.27;;;;;;;9.53;100.00;90418.13;6280789;22;20389;-81
2023/10/27 01:49:33;;;;;;;2.88;1.20;;;;;;;9.54;100.00;90406.56;6278512;22;20464;-80
2023/10/27 01:51:59;;;;;;;1.10;1.00;;;;;;;9.56;100.00;90417.44;6252873;22;20000;-81
2023/10/27 01:54:25;;;;;;;1.63;1.20;;;;;;;9.57;100.00;90418.97;6280572;22;20476;-80
2023/10/27 01:56:50;;;;;;;1.90;0.82;;;;;;;9.66;100.00;90405.78;6277688;22;20008;-81
2023/10/27 01:59:16;;;;;;;1.33;1.02;;;;;;;9.71;100.00;90395.09;6278690;22;20513;-79
2023/10/27 02:01:41;;;;;;;0.82;0.82;;;;;;;9.67;100.00;90397.59;6253871;22;20008;-78
2023/10/27 02:04:07;;;;;;;1.45;1.00;;;;;;;9.70;100.00;90383.13;6229109;22;20019;-80
2023/10/27 02:06:33;;;;;;;1.00;0.90;;;;;;;9.72;100.00;90379.09;6279204;22;20018;-80
2023/10/27 02:08:58;;;;;;;1.02;0.90;;;;;;;9.68;100.00;90367.78;6280650;22;20527;-80
2023/10/27 02:11:24;;;;;;;0.90;0.85;;;;;;;9.63;100.00;90352.34;6253218;22;20106;-80
2023/10/27 02:13:50;;;;;;;1.42;1.10;;;;;;;9.64;100.00;90350.50;6278331;22;20069;-81
2023/10/27 02:16:15;;;;;;;1.13;1.02;;;;;;;9.63;100.00;90357.56;6279220;22;20031;-81
2023/10/27 02:18:41;;;;;;;1.75;1.08;;;;;;;9.59;100.00;90343.63;6278399;22;20035;-80
2023/10/27 02:21:08;;;;;;;1.10;1.00;;;;;;;9.67;100.00;90355.06;6278314;22;20015;-81
2023/10/27 02:23:33;;;;;;;1.70;1.00;;;;;;;9.66;100.00;90348.28;6253117;22;20043;-80
2023/10/27 02:25:59;;;;;;;1.00;1.00;;;;;;;9.66;100.00;90332.63;6251653;22;20072;-82
2023/10/27 02:28:25;;;;;;;1.05;0.88;;;;;;;9.66;100.00;90328.19;6253630;22;20015;-80
2023/10/27 02:30:50;;;;;;;1.08;0.98;;;;;;;9.68;100.00;90318.16;6279176;22;20042;-80
2023/10/27 02:33:16;;;;;;;0.70;0.70;;;;;;;9.68;100.00;90302.50;6279026;22;20065;-82
2023/10/27 02:35:42;;;;;;;0.90;0.80;;;;;;;9.68;100.00;90302.50;6277439;22;20330;-80
2023/10/27 02:38:07;;;;;;;1.00;0.90;;;;;;;9.73;100.00;90296.25;6251339;22;20016;-80
2023/10/27 02:40:36;;;;;;;1.38;0.80;;;;;;;9.70;100.00;90294.28;6279537;22;20464;-80
2023/10/27 02:43:03;;;;;;;0.80;0.80;;;;;;;9.73;100.00;90307.47;6276907;22;20027;-80
2023/10/27 02:45:29;;;;;;;0.93;0.88;;;;;;;9.80;100.00;90310.25;6254671;22;20019;-79
2023/10/27 02:47:55;;;;;;;0.90;0.90;;;;;;;9.81;100.00;90308.41;6264592;22;20287;-79
2023/10/27 02:50:21;;;;;;;0.90;0.90;;;;;;;9.78;100.00;90291.53;6264295;22;20015;-81
2023/10/27 02:52:47;;;;;;;1.05;0.70;;;;;;;9.84;100.00;90288.69;6290305;22;20026;-79
2023/10/27 02:55:12;;;;;;;0.80;0.80;;;;;;;9.84;100.00;90286.06;6286821;22;20003;-80
2023/10/27 02:57:38;;;;;;;0.60;0.60;;;;;;;9.85;100.00;90277.91;6256729;22;20012;-81
2023/10/27 03:00:06;;;;;;;0.47;0.47;;;;;;;9.83;100.00;90287.16;6281340;22;20007;-80
2023/10/27 03:02:32;;;;;;;1.30;0.77;;;;;;;9.86;100.00;90296.94;6282302;22;20072;-80
2023/10/27 03:04:58;;;;;;;1.63;0.73;;;;;;;9.82;100.00;90309.94;6282988;22;20003;-81
2023/10/27 03:07:25;;;;;;;1.05;0.80;;;;;;;9.80;100.00;90312.88;6284903;22;20012;-80
2023/10/27 03:09:51;;;;;;;1.02;0.88;;;;;;;9.80;100.00;90320.72;6254338;22;20098;-81
2023/10/27 03:12:16;;;;;;;1.40;1.13;;;;;;;9.85;100.00;90330.16;6280767;22;20023;-80
2023/10/27 03:14:43;;;;;;;6.13;1.63;;;;;;;9.83;100.00;90326.38;6254405;22;20523;-80
2023/10/27 03:17:09;;;;;;;22.77;1.85;;;;;;;9.78;100.00;90325.50;6281340;22;20038;-80
2023/10/27 03:19:34;;;;;;;1.52;1.23;;;;;;;9.72;100.00;90346.97;6279431;22;20063;-80
2023/10/27 03:22:01;;;;;;;36.72;2.15;;;;;;;9.68;100.00;90359.97;6254898;22;20022;-81
2023/10/27 03:24:26;;;;;;;3.03;1.60;;;;;;;9.67;100.00;90363.66;6281270;22;20019;-81
2023/10/27 03:26:52;;;;;;;3.90;1.20;;;;;;;9.61;100.00;90372.81;6278910;22;20037;-80
2023/10/27 03:29:18;;;;;;;1.40;1.17;;;;;;;9.68;100.00;90373.03;6253356;22;19999;-81
2023/10/27 03:31:43;;;;;;;1.73;1.17;;;;;;;9.65;100.00;90388.59;6279450;22;20020;-79
2023/10/27 03:34:10;;;;;;;18.50;2.28;;;;;;;9.63;100.00;90385.53;6253205;22;20007;-81
2023/10/27 03:36:36;;;;;;;4.00;1.70;;;;;;;9.59;100.00;90369.75;6281777;22;20079;-79
2023/10/27 03:39:02;;;;;;;3.00;1.58;;;;;;;9.56;100.00;90368.56;6253174;22;20008;-81
2023/10/27 03:41:28;;;;;;;2.03;0.82;;;;;;;9.57;100.00;90353.69;6278197;22;20553;-79
2023/10/27 03:43:55;;;;;;;4.05;0.80;;;;;;;9.58;100.00;90358.56;6279666;22;20059;-82
2023/10/27 03:46:21;;;;;;;0.90;0.90;;;;;;;9.57;100.00;90358.91;6278627;22;20004;-80
2023/10/27 03:48:48;;;;;;;1.00;0.90;;;;;;;9.55;100.00;90348.03;6277948;22;20003;-81
2023/10/27 03:51:17;;;;;;;1.08;0.98;;;;;;;9.52;100.00;90344.19;6279566;22;20019;-81
2023/10/27 03:53:43;;;;;;;1.35;1.00;;;;;;;9.53;100.00;90355.44;6254443;22;20305;-80
2023/10/27 03:56:09;;;;;;;1.88;1.40;;;;;;;9.50;100.00;90350.84;6278773;22;20007;-81
2023/10/27 03:58:34;;;;;;;1.73;1.23;;;;;;;9.48;100.00;90350.41;6281475;22;20004;-83
2023/10/27 04:01:00;;;;;;;2.00;1.50;;;;;;;9.46;100.00;90350.00;6279534;22;20276;-82
2023/10/27 04:03:26;;;;;;;1.80;1.40;;;;;;;9.41;100.00;90342.38;6281437;22;20335;-80
2023/10/27 04:05:51;;;;;;;5.03;1.27;;;;;;;9.41;100.00;90347.59;6278129;22;20460;-80
2023/10/27 04:08:17;;;;;;;2.90;1.30;;;;;;;9.37;100.00;90355.34;6280928;22;20018;-81
2023/10/27 04:10:42;;;;;;;1.17;1.05;;;;;;;9.35;100.00;90368.72;6281298;22;20015;-82
2023/10/27 04:13:08;;;;;;;1.10;1.00;;;;;;;9.33;100.00;90351.88;6285510;22;20433;-82
2023/10/27 04:15:34;;;;;;;4.07;1.33;;;;;;;9.32;100.00;90345.91;6285561;22;20019;-79
2023/10/27 04:18:00;;;;;;;1.80;1.30;;;;;;;9.28;100.00;90342.44;6259027;22;20031;-81
2023/10/27 04:20:26;;;;;;;2.03;1.35;;;;;;;9.24;100.00;90323.28;6284890;22;20011;-81
2023/10/27 04:22:51;;;;;;;1.63;1.15;;;;;;;9.23;100.00;90323.59;6284090;22;20535;-80
2023/10/27 04:25:17;;;;;;;1.20;1.10;;;;;;;9.19;100.00;90326.13;6310739;22;20196;-82
2023/10/27 04:27:43;;;;;;;1.30;1.20;;;;;;;9.15;100.00;90314.81;6311419;22;19995;-80
2023/10/27 04:30:11;;;;;;;3.42;1.10;;;;;;;9.11;100.00;90324.41;6310705;22;20018;-81
2023/10/27 04:32:40;;;;;;;5.32;1.00;;;;;;;9.06;100.00;90316.81;6283517;22;20011;-81
2023/10/27 04:35:07;;;;;;;0.93;0.93;;;;;;;9.05;100.00;90307.44;6310924;22;20100;-81
2023/10/27 04:37:33;;;;;;;3.45;1.00;;;;;;;8.97;100.00;90296.03;6286271;22;20027;-80
2023/10/27 04:40:00;;;;;;;0.80;0.80;;;;;;;9.02;100.00;90300.28;6322992;22;20015;-79
2023/10/27 04:42:26;;;;;;;2.33;0.93;;;;;;;8.99;100.00;90300.94;6322662;22;20051;-79
2023/10/27 04:44:52;;;;;;;0.95;0.82;;;;;;;8.90;100.00;90286.16;6269858;22;20026;-79
2023/10/27 04:47:19;;;;;;;1.10;0.80;;;;;;;8.96;100.00;90297.91;6315392;22;20018;-81
2023/10/27 04:49:46;;;;;;;0.80;0.80;;;;;;;8.94;100.00;90302.69;6284659;22;20022;-79
2023/10/27 04:52:11;;;;;;;1.58;0.80;;;;;;;8.92;100.00;90297.03;6256544;22;20030;-83
2023/10/27 04:54:37;;;;;;;2.17;1.13;;;;;;;8.95;100.00;90304.19;6288825;22;20026;-79
2023/10/27 04:57:03;;;;;;;2.05;0.85;;;;;;;8.94;100.00;90310.50;6285232;22;20013;-82
2023/10/27 04:59:29;;;;;;;0.80;0.80;;;;;;;8.96;100.00;90315.38;6258314;22;20011;-82
2023/10/27 05:01:55;;;;;;;1.02;0.88;;;;;;;8.82;100.00;90307.91;6285271;22;20460;-83
2023/10/27 05:04:21;;;;;;;0.80;0.80;;;;;;;8.87;100.00;90328.56;6284243;22;20007;-80
2023/10/27 05:06:47;;;;;;;0.80;0.80;;;;;;;8.82;100.00;90336.59;6282548;22;20009;-81
2023/10/27 05:09:13;;;;;;;2.65;1.65;;;;;;;8.79;100.00;90339.88;6283694;22;20007;-83
2023/10/27 05:11:41;;;;;;;3.58;1.10;;;;;;;8.80;100.00;90354.41;6261156;22;20023;-82
2023/10/27 05:14:07;;;;;;;1.33;1.10;;;;;;;8.77;100.00;90351.72;6287713;22;20400;-85
2023/10/27 05:16:33;;;;;;;2.25;1.00;;;;;;;8.78;100.00;90351.41;6260401;22;20015;-80
2023/10/27 05:18:58;;;;;;;1.35;1.08;;;;;;;8.80;100.00;90351.81;6310666;22;20015;-82
2023/10/27 05:21:26;;;;;;;1.05;0.95;;;;;;;8.84;100.00;90347.47;6283985;22;20074;-84
2023/10/27 05:23:56;;;;;;;2.25;1.00;;;;;;;8.80;100.00;90357.03;6287850;22;20260;-78
2023/10/27 05:26:25;;;;;;;2.03;0.88;;;;;;;8.82;100.00;90365.28;6284510;22;20181;-81
2023/10/27 05:28:51;;;;;;;1.33;0.93;;;;;;;8.79;100.00;90371.19;6255921;22;20381;-77
2023/10/27 05:31:17;;;;;;;0.70;0.70;;;;;;;8.80;100.00;90371.94;6278349;22;20025;-77
2023/10/27 05:33:43;;;;;;;0.80;0.80;;;;;;;8.83;100.00;90369.44;6306087;22;20423;-78
2023/10/27 05:36:09;;;;;;;0.80;0.80;;;;;;;8.77;100.00;90362.91;6306156;22;20011;-77
2023/10/27 05:38:34;;;;;;;1.23;1.00;;;;;;;8.78;100.00;90369.66;6304562;22;20078;-77
2023/10/27 05:41:00;;;;;;;1.02;1.00;;;;;;;8.92;100.00;90362.25;6278767;22;20470;-77
2023/10/27 05:43:26;;;;;;;0.65;0.65;;;;;;;8.86;100.00;90376.59;6252793;22;20332;-78
2023/10/27 05:45:52;;;;;;;4.00;1.00;;;;;;;8.81;100.00;90368.25;6306592;22;20404;-77
2023/10/27 05:48:18;;;;;;;1.20;0.95;;;;;;;8.78;100.00;90374.88;6306105;22;19999;-78
2023/10/27 05:50:43;;;;;;;1.27;0.93;;;;;;;9.00;100.00;90368.44;6306362;22;20015;-76
2023/10/27 05:53:09;;;;;;;1.58;1.10;;;;;;;8.91;100.00;90379.00;6309051;22;19999;-79
2023/10/27 05:55:35;;;;;;;1.65;1.10;;;;;;;8.85;100.00;90379.53;6308257;22;20030;-78
2023/10/27 05:58:00;;;;;;;1.00;0.88;;;;;;;8.71;100.00;90380.63;6305193;22;20069;-76
2023/10/27 06:00:27;;;;;;;1.10;1.00;;;;;;;8.72;100.00;90389.22;6223969;22;20399;-77
2023/10/27 06:02:53;;;;;;;1.63;1.23;;;;;;;8.79;100.00;90379.00;6302741;22;19999;-76
2023/10/27 06:05:20;;;;;;;1.25;0.93;;;;;;;8.76;100.00;90395.31;6277736;22;20068;-76
2023/10/27 06:07:46;;;;;;;0.98;0.85;;;;;;;8.99;100.00;90389.66;6303291;22;20021;-78
2023/10/27 06:10:12;;;;;;;2.58;1.00;;;;;;;9.01;100.00;90392.72;6303181;22;20047;-78
2023/10/27 06:12:37;;;;;;;0.70;0.70;;;;;;;9.22;100.00;90401.16;6301050;22;20349;-77
2023/10/27 06:15:04;;;;;;;1.02;0.90;;;;;;;9.32;100.00;90403.34;6301976;22;20019;-77
2023/10/27 06:17:33;;;;;;;0.90;0.90;;;;;;;9.38;100.00;90417.69;6275170;22;20352;-77
2023/10/27 06:20:02;;;;;;;0.82;0.82;;;;;;;9.53;100.00;90428.56;6276689;22;20148;-76
2023/10/27 06:22:28;;;;;;;0.65;0.65;;;;;;;9.58;100.00;90441.38;6302400;22;20033;-76
2023/10/27 06:24:54;;;;;;;1.05;0.90;;;;;;;9.54;100.00;90451.72;6274344;22;20119;-76
2023/10/27 06:27:19;;;;;;;2.00;1.20;;;;;;;9.49;100.00;90451.94;6302866;22;20432;-76
2023/10/27 06:29:45;;;;;;;2.53;1.60;;;;;;;9.46;100.00;90455.22;6274505;22;20011;-77
2023/10/27 06:32:10;;;;;;;21.35;1.88;;;;;;;9.36;100.00;90461.63;6301396;22;19999;-77
2023/10/27 06:34:36;;;;;;;19.50;1.90;;;;;;;9.30;100.00;90457.75;6248918;22;20011;-77
2023/10/27 06:37:03;;;;;;;3.30;1.48;;;;;;;9.42;100.00;90453.59;6301368;22;20338;-76
2023/10/27 06:39:28;;;;;;;1.35;1.20;;;;;;;10.75;100.00;90448.28;6301741;22;20351;-76
2023/10/27 06:41:54;;;;;;;1.75;1.05;;;;;;;12.03;100.00;90475.91;6274283;22;20034;-78
2023/10/27 06:44:19;;;;;;;1.00;0.90;;;;;;;13.23;100.00;90466.50;6302033;22;20015;-77
2023/10/27 06:46:45;;;;;;;0.80;0.80;;;;;;;13.98;100.00;90483.41;6303142;22;20000;-76
2023/10/27 06:49:13;;;;;;;1.10;0.95;;;;;;;14.71;100.00;90505.03;6302686;22;20007;-78
2023/10/27 06:51:38;;;;;;;1.13;0.90;;;;;;;15.54;100.00;90509.25;6302458;22;20003;-78
2023/10/27 06:54:04;;;;;;;1.00;0.90;;;;;;;16.58;100.00;90506.53;6274851;22;20071;-78
2023/10/27 06:56:30;;;;;;;1.13;0.60;;;;;;;17.50;100.00;90501.94;6302051;22;20008;-77
2023/10/27 06:59:01;;;;;;;1.83;0.80;;;;;;;17.67;100.00;90515.19;6304656;22;20016;-78
2023/10/27 07:01:26;;;;;;;3.50;0.60;;;;;;;18.58;100.00;90510.56;6276586;22;20015;-79
2023/10/27 07:03:53;;;;;;;0.57;0.55;;;;;;;19.05;100.00;90527.06;6304922;22;20121;-78
2023/10/27 07:06:19;;;;;;;0.93;0.70;;;;;;;19.67;100.00;90523.72;6304853;22;20452;-78
2023/10/27 07:08:44;;;;;;;1.75;0.85;;;;;;;20.52;90.15;90510.91;6274299;22;20045;-78
2023/10/27 07:11:10;;;;;;;2.05;0.93;;;;;;;20.68;90.37;90514.97;6269060;22;20039;-80
2023/10/27 07:13:36;;;;;;;1.33;0.70;;;;;;;20.99;100.00;90537.78;6273389;22;20386;-79
2023/10/27 07:16:02;;;;;;;2.85;0.70;;;;;;;21.83;89.23;90533.69;6274292;22;20015;-79
2023/10/27 07:18:29;;;;;;;1.48;0.98;;;;;;;21.62;100.00;90518.78;6275032;22;20014;-80
2023/10/27 07:20:56;;;;;;;1.05;0.80;;;;;;;21.88;87.30;90539.72;6275921;22;20357;-79
2023/10/27 07:23:22;;;;;;;1.80;1.10;;;;;;;22.14;87.91;90525.63;6275830;22;20000;-80
2023/10/27 07:25:48;;;;;;;4.35;0.90;;;;;;;21.88;75.85;90531.72;6273902;22;20770;-80
2023/10/27 07:28:14;;;;;;;2.58;1.00;;;;;;;22.82;77.73;90540.50;6272579;22;20322;-80
2023/10/27 07:30:39;;;;;;;1.27;1.10;;;;;;;22.11;81.19;90550.41;6272436;22;20035;-80
2023/10/27 07:33:05;;;;;;;2.42;0.90;;;;;;;22.33;80.61;90547.44;6277011;22;20333;-79
2023/10/27 07:35:33;;;;;;;0.93;0.85;;;;;;;22.63;76.73;90549.97;6272496;22;20076;-80
2023/10/27 07:37:59;;;;;;;0.88;0.88;;;;;;;22.22;77.89;90537.72;6271890;22;20004;-80
2023/10/27 07:40:25;;;;;;;2.50;0.70;;;;;;;22.89;77.45;90536.94;6274948;22;20012;-80
2023/10/27 07:42:57;;;;;;;0.85;0.85;;;;;;;22.61;76.50;90543.56;6274419;22;20411;-79
2023/10/27 07:45:24;;;;;;;2.20;0.95;;;;;;;22.28;86.33;90561.22;6275948;22;20437;-79
2023/10/27 07:47:49;;;;;;;1.20;0.75;;;;;;;22.01;79.07;90544.09;6247211;22;20000;-79
2023/10/27 07:50:15;;;;;;;2.08;1.00;;;;;;;21.46;100.00;90549.78;6272353;22;20510;-79
2023/10/27 07:52:42;;;;;;;2.40;1.10;;;;;;;21.85;95.71;90556.50;6272729;22;20008;-78
2023/10/27 07:55:07;;;;;;;2.47;1.00;;;;;;;21.29;93.19;90562.91;6273723;22;20141;-79
2023/10/27 07:57:34;;;;;;;2.25;0.80;;;;;;;20.82;92.24;90567.97;6274041;22;20004;-79
2023/10/27 08:00:04;;;;;;;0.70;0.70;;;;;;;20.79;95.01;90571.44;6274086;22;20022;-79
2023/10/27 08:02:33;;;;;;;1.38;0.65;;;;;;;20.79;89.29;90587.38;6274082;22;20343;-79
2023/10/27 08:04:59;;;;;;;1.90;0.77;;;;;;;20.50;93.04;90576.97;6274101;22;20433;-79
2023/10/27 08:07:24;;;;;;;1.48;0.68;;;;;;;21.22;95.69;90576.28;6247679;22;20019;-80
2023/10/27 08:09:50;;;;;;;1.20;0.90;;;;;;;20.70;95.02;90579.13;6271604;22;20713;-79
2023/10/27 08:12:16;;;;;;;3.40;1.70;;;;;;;20.33;100.00;90583.19;6296111;22;20235;-80
2023/10/27 08:14:42;;;;;;;4.10;1.30;;;;;;;20.48;100.00;90589.91;6278092;22;20038;-79
2023/10/27 08:17:07;;;;;;;4.95;1.15;;;;;;;19.90;100.00;90610.06;6226814;22;20027;-80
2023/10/27 08:19:33;;;;;;;2.83;1.15;;;;;;;19.39;100.00;90606.16;6304681;22;20003;-80
2023/10/27 08:21:59;;;;;;;2.17;1.40;;;;;;;18.59;100.00;90596.88;6305418;22;20300;-80
2023/10/27 08:24:25;;;;;;;1.92;1.10;;;;;;;18.00;100.00;90605.94;6306779;22;20078;-79
2023/10/27 08:26:50;;;;;;;1.95;1.17;;;;;;;18.55;100.00;90604.06;6305970;22;20026;-80
2023/10/27 08:29:16;;;;;;;1.83;1.00;;;;;;;18.70;100.00;90608.19;6278248;22;20120;-79
2023/10/27 08:31:42;;;;;;;2.70;1.25;;;;;;;18.77;100.00;90605.56;6304554;22;20189;-79
2023/10/27 08:34:11;;;;;;;1.52;1.20;;;;;;;18.64;100.00;90601.78;6306561;22;20105;-80
2023/10/27 08:36:37;;;;;;;2.30;1.20;;;;;;;18.10;100.00;90599.91;6306518;22;20023;-80
2023/10/27 08:39:03;;;;;;;5.75;1.27;;;;;;;18.42;100.00;90607.09;6303846;22;20093;-80
2023/10/27 08:41:29;;;;;;;3.35;1.38;;;;;;;18.31;100.00;90603.69;6304164;22;20011;-80
2023/10/27 08:43:55;;;;;;;1.77;0.90;;;;;;;17.95;100.00;90608.97;6277444;22;19999;-79
2023/10/27 08:46:22;;;;;;;4.72;1.33;;;;;;;17.75;100.00;90605.16;6304743;22;20011;-80
2023/10/27 08:48:48;;;;;;;2.85;1.38;;;;;;;17.78;100.00;90599.84;6293806;22;19999;-79
2023/10/27 08:51:14;;;;;;;1.35;0.90;;;;;;;17.46;100.00;90605.06;6296222;22;20026;-79
2023/10/27 08:53:40;;;;;;;1.45;1.00;;;;;;;17.93;100.00;90607.84;6267301;22;20000;-79
2023/10/27 08:56:14;;;;;;;1.15;0.80;;;;;;;18.03;100.00;90607.09;6268495;22;20030;-79
2023/10/27 08:58:47;;;;;;;0.70;0.70;;;;;;;18.19;99.64;90602.16;6294880;22;20053;-80
2023/10/27 09:01:16;;;;;;;1.65;1.00;;;;;;;18.42;100.00;90615.06;6297052;22;20011;-79
2023/10/27 09:04:04;;;;;;;3.38;1.13;;;;;;;18.38;100.00;90624.88;6297745;22;20010;-80
2023/10/27 09:06:30;;;;;;;2.13;1.05;;;;;;;18.41;100.00;90618.81;6305190;22;20078;-79
2023/10/27 09:08:55;;;;;;;6.07;1.23;;;;;;;18.73;100.00;90618.81;6304481;22;20329;-81
2023/10/27 09:11:22;;;;;;;4.03;1.35;;;;;;;18.66;100.00;90618.03;6276678;22;20100;-81
2023/10/27 09:13:47;;;;;;;1.75;0.95;;;;;;;17.87;100.00;90618.03;6252904;22;20019;-78
2023/10/27 09:16:26;;;;;;;5.10;1.17;;;;;;;17.42;100.00;90606.94;6305404;22;20031;-79
2023/10/27 09:18:53;;;;;;;2.22;1.20;;;;;;;17.72;100.00;90600.59;6279058;22;20434;-79
2023/10/27 09:21:45;;;;;;;1.20;1.05;;;;;;;17.95;100.00;90608.22;6305277;22;20091;-79
2023/10/27 09:24:20;;;;;;;3.75;1.10;;;;;;;18.13;100.00;90613.53;6270153;22;20356;-79
2023/10/27 09:26:46;;;;;;;1.20;0.98;;;;;;;18.39;100.00;90609.75;6305754;22;20011;-79
2023/10/27 09:29:12;;;;;;;1.38;1.00;;;;;;;18.42;100.00;90636.25;6305725;22;20030;-81
2023/10/27 09:31:38;;;;;;;5.07;0.98;;;;;;;17.96;100.00;90622.97;6305897;22;20019;-81
2023/10/27 09:34:17;;;;;;;3.28;1.10;;;;;;;18.16;100.00;90647.19;6304943;22;20362;-80
2023/10/27 09:36:45;;;;;;;2.40;1.08;;;;;;;18.01;100.00;90638.47;6305634;22;20035;-80
2023/10/27 09:39:16;;;;;;;2.35;1.15;;;;;;;18.05;100.00;90655.88;6304223;22;20011;-81
2023/10/27 09:41:53;;;;;;;3.85;0.98;;;;;;;17.86;100.00;90658.88;6305219;22;20094;-80
2023/10/27 09:44:21;;;;;;;1.35;0.98;;;;;;;17.81;100.00;90667.94;6277423;22;20011;-80
2023/10/27 09:46:51;;;;;;;0.60;0.55;;;;;;;17.19;100.00;90671.44;6304157;22;20065;-81
2023/10/27 09:49:29;;;;;;;1.33;0.93;;;;;;;17.67;100.00;90681.88;6306650;22;20322;-79
2023/10/27 09:51:59;;;;;;;3.00;1.20;;;;;;;17.57;100.00;90679.94;6306042;22;20019;-81
2023/10/27 09:54:31;;;;;;;1.10;0.90;;;;;;;17.35;100.00;90681.72;6311606;22;20022;-80
2023/10/27 09:57:04;;;;;;;0.85;0.70;;;;;;;17.42;100.00;90689.69;6313564;22;20425;-82
2023/10/27 09:59:30;;;;;;;4.40;1.00;;;;;;;17.68;100.00;90701.13;6284564;22;20026;-80
2023/10/27 10:02:02;;;;;;;1.70;1.13;;;;;;;17.73;100.00;90723.84;6307326;22;20021;-82
2023/10/27 10:04:50;;;;;;;1.38;1.00;;;;;;;17.82;100.00;90718.97;6305102;22;20018;-81
2023/10/27 10:07:31;;;;;;;1.33;1.00;;;;;;;17.95;100.00;90727.34;6305812;22;20455;-81
2023/10/27 10:09:57;;;;;;;1.45;1.02;;;;;;;18.25;100.00;90719.84;6278176;22;20376;-80
2023/10/27 10:12:23;;;;;;;1.45;0.93;;;;;;;18.55;100.00;90724.03;6305025;22;20015;-81
2023/10/27 10:14:49;;;;;;;1.65;0.80;;;;;;;18.48;100.00;90714.19;6309318;22;20015;-79
2023/10/27 10:17:37;;;;;;;1.50;1.10;;;;;;;18.44;100.00;90716.09;6310480;22;20293;-79
2023/10/27 10:20:05;;;;;;;3.38;1.20;;;;;;;18.14;100.00;90702.41;6309497;22;20010;-80
2023/10/27 10:22:37;;;;;;;0.93;0.90;;;;;;;18.00;100.00;90695.97;6312156;22;19999;-79
2023/10/27 10:25:15;;;;;;;2.22;1.20;;;;;;;18.35;100.00;90697.16;6283674;22;20011;-79
2023/10/27 10:28:08;;;;;;;2.85;1.05;;;;;;;18.40;98.76;90706.63;6309231;22;20003;-79
2023/10/27 10:30:38;;;;;;;2.38;1.15;;;;;;;18.30;100.00;90708.13;6308730;22;20496;-79
2023/10/27 10:33:19;;;;;;;8.70;0.95;;;;;;;17.89;90.47;90692.53;6282824;22;20064;-79
2023/10/27 10:35:49;;;;;;;1.48;1.05;;;;;;;17.84;100.00;90698.94;6284413;22;20018;-79
2023/10/27 10:38:21;;;;;;;1.02;0.82;;;;;;;18.10;100.00;90700.53;6309846;22;20007;-80
2023/10/27 10:40:55;;;;;;;1.20;0.90;;;;;;;18.10;100.00;90699.75;6306087;22;20021;-80
2023/10/27 10:43:33;;;;;;;1.10;0.90;;;;;;;18.26;99.90;90696.75;6306239;22;20082;-80
2023/10/27 10:46:00;;;;;;;1.13;0.80;;;;;;;18.38;98.17;90688.47;6306332;22;20012;-80
2023/10/27 10:48:29;;;;;;;2.70;1.05;;;;;;;18.08;90.13;90689.56;6278433;22;19999;-80
2023/10/27 10:51:04;;;;;;;1.77;1.05;;;;;;;17.98;99.68;90694.81;6278894;22;20410;-80
2023/10/27 10:53:30;;;;;;;1.52;1.00;;;;;;;18.13;97.17;90698.28;6305563;22;20007;-80
2023/10/27 10:55:58;;;;;;;2.42;0.90;;;;;;;17.80;95.05;90697.38;6305707;22;20026;-80
2023/10/27 10:58:29;;;;;;;1.42;0.80;;;;;;;18.12;100.00;90699.38;6279051;22;20003;-81
2023/10/27 11:00:56;;;;;;;1.73;0.82;;;;;;;18.01;100.00;90702.78;6306093;22;20368;-79
2023/10/27 11:03:25;;;;;;;3.50;1.23;;;;;;;18.25;100.00;90700.53;6305320;22;19999;-79
2023/10/27 11:05:54;;;;;;;1.33;0.80;;;;;;;18.18;100.00;90705.84;6304320;22;20014;-79
2023/10/27 11:08:37;;;;;;;1.63;1.00;;;;;;;18.52;100.00;90701.69;6304912;22;20287;-79
2023/10/27 11:11:05;;;;;;;1.48;0.90;;;;;;;18.63;100.00;90704.34;6253708;22;20086;-79
2023/10/27 11:13:33;;;;;;;1.27;0.77;;;;;;;18.66;100.00;90695.63;6278765;22;20007;-79
2023/10/27 11:16:00;;;;;;;2.92;1.08;;;;;;;18.52;94.27;90699.06;6305527;22;20011;-79
2023/10/27 11:18:28;;;;;;;1.05;0.80;;;;;;;18.79;100.00;90698.72;6305712;22;20011;-80
2023/10/27 11:20:54;;;;;;;2.15;0.93;;;;;;;18.76;100.00;90698.69;6305543;22;20074;-79
2023/10/27 11:23:20;;;;;;;3.17;1.17;;;;;;;19.03;100.00;90704.38;6306490;22;20011;-79
2023/10/27 11:25:45;;;;;;;1.20;0.93;;;;;;;19.09;100.00;90713.44;6306072;22;20385;-79
2023/10/27 11:28:27;;;;;;;1.30;0.93;;;;;;;19.29;100.00;90698.63;6252556;22;20015;-79
2023/10/27 11:30:58;;;;;;;1.25;1.00;;;;;;;19.01;84.39;90688.09;6277197;22;20453;-80